Greenville, SC

4:27 PM EST on December 22, 2014 (GMT -0500)
AG Farms Cherrydale | Change Station
CLOSE
Current Station
Personal Weather Station
Location: Greenville, SC
Elevation: 1001 ft
Nearby Weather Stations

Elev 1001 ft 34.88 °N, 82.41 °W | Updated 3 minutes ago

Overcast
Overcast
41.0 °F
Feels Like 38 °F
N
4.2
Wind Variable Wind from ESE

Today
High -- | Low -- °F
--% Chance of Precip.
Yesterday
High -- | Low -- °F
Precip. -- in
7:33 AM 5:22 PM
New Moon, 1% visible
Pressure 30.02 in
Visibility 7.0 miles
Clouds Overcast 500 ft
Windchill 38 °F
Dew Point 41 °F
Humidity 99%
Rainfall 0.02 in
Snow Depth Not available.
UV 0 out of 12
Pollen 1.00 out of 12
Air Quality Not available.
Flu Activity Not available.
METAR KGMU 222053Z 06007KT 7SM OVC005 05/03 A3000 RMK AO2 SLP164 T00500033 56013

More Conditions Fewer Conditions

Pressure 30.02 in
Visibility 7.0 miles
Clouds Overcast 500 ft
Windchill 38 °F
Dew Point 41 °F
Humidity 99%
Rainfall 0.02 in
Snow Depth Not available.
UV 0 out of 12
Pollen 1.00 out of 12
Air Quality Not available.
Flu Activity Not available.
METAR KGMU 222053Z 06007KT 7SM OVC005 05/03 A3000 RMK AO2 SLP164 T00500033 56013

More Conditions Fewer Conditions

10-Day Weather Forecast

Almanac

Astronomy

Dec. 22, 2014 Rise Set
Actual Time
Civil Twilight
Nautical Twilight
Astronomical Twilight
Moon
Length of Visible Light
Length of Day
Tomorrow will be .
, % of the Moon is Illuminated

Today's Extremes

State Highs State Lows

Community

WunderPhotos

Upload Photos

1,779,682 photos uploaded!

WunderBlogs® & News

Nearby

Air Quality

  Air Quality AQ Index Pollutant
Not available.

Snow Depth

Station Depth Elevation

Earthquake Activity

City Distance Mag. Time & Date
Minimum magnitude displayed is 2.5.

Coastal Water Temperatures

Place Temperature

Nearby Weather Stations